sensor_id;sensor_type;location;lat;lon;timestamp;P1;durP1;ratioP1;P2;durP2;ratioP2
70459;SDS011;57920;54.796;9.430;2022-07-05T00:00:03;1.33;;;0.90;;
70459;SDS011;57920;54.796;9.430;2022-07-05T00:02:29;3.00;;;1.10;;
70459;SDS011;57920;54.796;9.430;2022-07-05T00:04:55;1.50;;;0.83;;
70459;SDS011;57920;54.796;9.430;2022-07-05T00:07:21;4.53;;;1.17;;
70459;SDS011;57920;54.796;9.430;2022-07-05T00:09:51;2.43;;;1.30;;
70459;SDS011;57920;54.796;9.430;2022-07-05T00:12:19;2.37;;;1.10;;
70459;SDS011;57920;54.796;9.430;2022-07-05T00:14:46;2.43;;;1.30;;
70459;SDS011;57920;54.796;9.430;2022-07-05T00:17:12;2.43;;;1.00;;
70459;SDS011;57920;54.796;9.430;2022-07-05T00:19:38;1.40;;;0.97;;
70459;SDS011;57920;54.796;9.430;2022-07-05T00:22:04;5.10;;;1.10;;
70459;SDS011;57920;54.796;9.430;2022-07-05T00:24:30;3.23;;;1.30;;
70459;SDS011;57920;54.796;9.430;2022-07-05T00:26:56;2.97;;;1.13;;
70459;SDS011;57920;54.796;9.430;2022-07-05T00:29:21;2.00;;;1.10;;
70459;SDS011;57920;54.796;9.430;2022-07-05T00:31:47;2.57;;;1.30;;
70459;SDS011;57920;54.796;9.430;2022-07-05T00:34:13;2.27;;;0.90;;
70459;SDS011;57920;54.796;9.430;2022-07-05T00:36:39;1.97;;;0.70;;
70459;SDS011;57920;54.796;9.430;2022-07-05T00:39:05;3.13;;;1.40;;
70459;SDS011;57920;54.796;9.430;2022-07-05T00:41:31;2.13;;;1.00;;
70459;SDS011;57920;54.796;9.430;2022-07-05T00:43:58;2.63;;;0.63;;
70459;SDS011;57920;54.796;9.430;2022-07-05T00:46:25;2.93;;;1.10;;
70459;SDS011;57920;54.796;9.430;2022-07-05T00:48:52;2.30;;;0.70;;
70459;SDS011;57920;54.796;9.430;2022-07-05T00:51:18;1.27;;;1.10;;
70459;SDS011;57920;54.796;9.430;2022-07-05T00:53:44;3.23;;;1.00;;
70459;SDS011;57920;54.796;9.430;2022-07-05T00:56:10;1.93;;;1.13;;
70459;SDS011;57920;54.796;9.430;2022-07-05T00:58:37;2.17;;;1.00;;
70459;SDS011;57920;54.796;9.430;2022-07-05T01:01:03;0.60;;;0.60;;
70459;SDS011;57920;54.796;9.430;2022-07-05T01:03:30;1.93;;;0.87;;
70459;SDS011;57920;54.796;9.430;2022-07-05T01:05:56;1.70;;;0.90;;
70459;SDS011;57920;54.796;9.430;2022-07-05T01:08:22;1.47;;;1.00;;
70459;SDS011;57920;54.796;9.430;2022-07-05T01:10:49;1.30;;;0.83;;
70459;SDS011;57920;54.796;9.430;2022-07-05T01:13:16;2.47;;;1.03;;
70459;SDS011;57920;54.796;9.430;2022-07-05T01:15:42;1.63;;;0.67;;
70459;SDS011;57920;54.796;9.430;2022-07-05T01:18:08;2.17;;;0.87;;
70459;SDS011;57920;54.796;9.430;2022-07-05T01:20:35;2.17;;;0.73;;
70459;SDS011;57920;54.796;9.430;2022-07-05T01:23:01;1.73;;;0.97;;
70459;SDS011;57920;54.796;9.430;2022-07-05T01:25:28;1.73;;;0.70;;
70459;SDS011;57920;54.796;9.430;2022-07-05T01:27:55;2.10;;;1.13;;
70459;SDS011;57920;54.796;9.430;2022-07-05T01:30:22;1.93;;;0.90;;
70459;SDS011;57920;54.796;9.430;2022-07-05T01:32:48;1.37;;;0.93;;
70459;SDS011;57920;54.796;9.430;2022-07-05T01:35:14;1.47;;;0.90;;
70459;SDS011;57920;54.796;9.430;2022-07-05T01:37:45;1.63;;;0.60;;
70459;SDS011;57920;54.796;9.430;2022-07-05T01:40:11;1.00;;;0.60;;
70459;SDS011;57920;54.796;9.430;2022-07-05T01:42:38;1.73;;;1.10;;
70459;SDS011;57920;54.796;9.430;2022-07-05T01:45:04;2.37;;;0.90;;
70459;SDS011;57920;54.796;9.430;2022-07-05T01:47:31;0.90;;;0.60;;
70459;SDS011;57920;54.796;9.430;2022-07-05T01:50:00;1.20;;;0.80;;
70459;SDS011;57920;54.796;9.430;2022-07-05T01:52:29;1.57;;;0.83;;
70459;SDS011;57920;54.796;9.430;2022-07-05T01:54:57;1.83;;;0.73;;
70459;SDS011;57920;54.796;9.430;2022-07-05T01:57:23;2.60;;;0.87;;
70459;SDS011;57920;54.796;9.430;2022-07-05T01:59:49;2.07;;;0.90;;
70459;SDS011;57920;54.796;9.430;2022-07-05T02:02:14;2.20;;;0.87;;
70459;SDS011;57920;54.796;9.430;2022-07-05T02:04:40;1.70;;;0.87;;
70459;SDS011;57920;54.796;9.430;2022-07-05T02:07:07;2.33;;;0.87;;
70459;SDS011;57920;54.796;9.430;2022-07-05T02:09:36;1.43;;;0.70;;
70459;SDS011;57920;54.796;9.430;2022-07-05T02:12:02;2.00;;;0.80;;
70459;SDS011;57920;54.796;9.430;2022-07-05T02:14:29;1.30;;;0.90;;
70459;SDS011;57920;54.796;9.430;2022-07-05T02:16:55;1.50;;;0.70;;
70459;SDS011;57920;54.796;9.430;2022-07-05T02:19:20;1.63;;;0.90;;
70459;SDS011;57920;54.796;9.430;2022-07-05T02:21:46;1.03;;;0.57;;
70459;SDS011;57920;54.796;9.430;2022-07-05T02:24:11;1.57;;;0.97;;
70459;SDS011;57920;54.796;9.430;2022-07-05T02:26:37;1.93;;;0.90;;
70459;SDS011;57920;54.796;9.430;2022-07-05T02:29:03;1.60;;;0.80;;
70459;SDS011;57920;54.796;9.430;2022-07-05T02:31:30;0.70;;;0.57;;
70459;SDS011;57920;54.796;9.430;2022-07-05T02:33:56;2.53;;;0.97;;
70459;SDS011;57920;54.796;9.430;2022-07-05T02:36:21;1.03;;;0.60;;
70459;SDS011;57920;54.796;9.430;2022-07-05T02:38:47;1.20;;;0.97;;
70459;SDS011;57920;54.796;9.430;2022-07-05T02:41:13;0.93;;;0.43;;
70459;SDS011;57920;54.796;9.430;2022-07-05T02:43:39;1.20;;;0.80;;
70459;SDS011;57920;54.796;9.430;2022-07-05T02:46:06;1.30;;;0.60;;
70459;SDS011;57920;54.796;9.430;2022-07-05T02:48:38;2.80;;;0.83;;
70459;SDS011;57920;54.796;9.430;2022-07-05T02:51:04;2.17;;;0.60;;
70459;SDS011;57920;54.796;9.430;2022-07-05T02:53:30;1.80;;;0.70;;
70459;SDS011;57920;54.796;9.430;2022-07-05T02:55:56;0.83;;;0.50;;
70459;SDS011;57920;54.796;9.430;2022-07-05T02:58:21;1.43;;;0.60;;
70459;SDS011;57920;54.796;9.430;2022-07-05T03:00:47;2.20;;;0.67;;
70459;SDS011;57920;54.796;9.430;2022-07-05T03:03:14;2.57;;;0.70;;
70459;SDS011;57920;54.796;9.430;2022-07-05T03:05:40;1.23;;;0.50;;
70459;SDS011;57920;54.796;9.430;2022-07-05T03:08:06;1.27;;;0.70;;
70459;SDS011;57920;54.796;9.430;2022-07-05T03:10:32;0.93;;;0.63;;
70459;SDS011;57920;54.796;9.430;2022-07-05T03:12:58;1.23;;;0.70;;
70459;SDS011;57920;54.796;9.430;2022-07-05T03:15:24;2.13;;;0.90;;
70459;SDS011;57920;54.796;9.430;2022-07-05T03:17:50;2.20;;;0.53;;
70459;SDS011;57920;54.796;9.430;2022-07-05T03:20:15;4.47;;;0.83;;
70459;SDS011;57920;54.796;9.430;2022-07-05T03:22:41;1.67;;;0.70;;
70459;SDS011;57920;54.796;9.430;2022-07-05T03:25:07;1.47;;;0.70;;
70459;SDS011;57920;54.796;9.430;2022-07-05T03:27:32;1.20;;;0.70;;
70459;SDS011;57920;54.796;9.430;2022-07-05T03:29:58;1.87;;;0.80;;
70459;SDS011;57920;54.796;9.430;2022-07-05T03:32:24;0.63;;;0.50;;
70459;SDS011;57920;54.796;9.430;2022-07-05T03:34:49;2.13;;;0.70;;
70459;SDS011;57920;54.796;9.430;2022-07-05T03:37:15;1.30;;;0.73;;
70459;SDS011;57920;54.796;9.430;2022-07-05T03:39:40;1.73;;;0.80;;
70459;SDS011;57920;54.796;9.430;2022-07-05T03:42:06;1.30;;;0.80;;
70459;SDS011;57920;54.796;9.430;2022-07-05T03:44:32;1.30;;;0.60;;
70459;SDS011;57920;54.796;9.430;2022-07-05T03:46:58;1.43;;;0.70;;
70459;SDS011;57920;54.796;9.430;2022-07-05T03:49:24;1.40;;;0.80;;
70459;SDS011;57920;54.796;9.430;2022-07-05T03:51:50;1.37;;;0.77;;
70459;SDS011;57920;54.796;9.430;2022-07-05T03:54:16;1.87;;;0.90;;
70459;SDS011;57920;54.796;9.430;2022-07-05T03:56:41;0.70;;;0.50;;
70459;SDS011;57920;54.796;9.430;2022-07-05T03:59:07;2.13;;;0.57;;
70459;SDS011;57920;54.796;9.430;2022-07-05T04:01:33;0.60;;;0.43;;
70459;SDS011;57920;54.796;9.430;2022-07-05T04:03:58;0.97;;;0.80;;
70459;SDS011;57920;54.796;9.430;2022-07-05T04:06:24;1.93;;;0.90;;
70459;SDS011;57920;54.796;9.430;2022-07-05T04:08:50;2.00;;;0.70;;
70459;SDS011;57920;54.796;9.430;2022-07-05T04:11:15;1.27;;;0.40;;
70459;SDS011;57920;54.796;9.430;2022-07-05T04:13:41;1.93;;;0.83;;
70459;SDS011;57920;54.796;9.430;2022-07-05T04:16:08;1.10;;;0.70;;
70459;SDS011;57920;54.796;9.430;2022-07-05T04:18:34;3.00;;;0.90;;
70459;SDS011;57920;54.796;9.430;2022-07-05T04:20:59;1.17;;;0.60;;
70459;SDS011;57920;54.796;9.430;2022-07-05T04:23:25;0.97;;;0.40;;
70459;SDS011;57920;54.796;9.430;2022-07-05T04:25:51;1.47;;;0.70;;
70459;SDS011;57920;54.796;9.430;2022-07-05T04:28:16;0.43;;;0.40;;
70459;SDS011;57920;54.796;9.430;2022-07-05T04:30:42;1.27;;;0.70;;
70459;SDS011;57920;54.796;9.430;2022-07-05T04:33:07;1.17;;;0.60;;
70459;SDS011;57920;54.796;9.430;2022-07-05T04:35:33;1.43;;;0.70;;
70459;SDS011;57920;54.796;9.430;2022-07-05T04:37:59;0.77;;;0.60;;
70459;SDS011;57920;54.796;9.430;2022-07-05T04:40:25;1.70;;;0.53;;
70459;SDS011;57920;54.796;9.430;2022-07-05T04:42:50;0.77;;;0.60;;
70459;SDS011;57920;54.796;9.430;2022-07-05T04:45:16;1.80;;;0.70;;
70459;SDS011;57920;54.796;9.430;2022-07-05T04:47:41;2.07;;;0.80;;
70459;SDS011;57920;54.796;9.430;2022-07-05T04:50:07;1.07;;;0.80;;
70459;SDS011;57920;54.796;9.430;2022-07-05T04:52:33;2.40;;;0.70;;
70459;SDS011;57920;54.796;9.430;2022-07-05T04:54:59;1.63;;;0.80;;
70459;SDS011;57920;54.796;9.430;2022-07-05T04:57:25;0.60;;;0.47;;
70459;SDS011;57920;54.796;9.430;2022-07-05T04:59:50;0.80;;;0.60;;
70459;SDS011;57920;54.796;9.430;2022-07-05T05:02:16;0.87;;;0.50;;
70459;SDS011;57920;54.796;9.430;2022-07-05T05:04:42;1.17;;;0.63;;
70459;SDS011;57920;54.796;9.430;2022-07-05T05:07:07;1.30;;;0.50;;
70459;SDS011;57920;54.796;9.430;2022-07-05T05:09:33;0.93;;;0.53;;
70459;SDS011;57920;54.796;9.430;2022-07-05T05:11:59;1.33;;;0.70;;
70459;SDS011;57920;54.796;9.430;2022-07-05T05:14:25;1.13;;;0.60;;
70459;SDS011;57920;54.796;9.430;2022-07-05T05:16:50;0.83;;;0.60;;
70459;SDS011;57920;54.796;9.430;2022-07-05T05:19:16;1.10;;;0.63;;
70459;SDS011;57920;54.796;9.430;2022-07-05T05:21:41;0.93;;;0.60;;
70459;SDS011;57920;54.796;9.430;2022-07-05T05:24:07;0.87;;;0.67;;
70459;SDS011;57920;54.796;9.430;2022-07-05T05:26:33;1.07;;;0.57;;
70459;SDS011;57920;54.796;9.430;2022-07-05T05:28:58;0.80;;;0.60;;
70459;SDS011;57920;54.796;9.430;2022-07-05T05:31:24;1.80;;;0.60;;
70459;SDS011;57920;54.796;9.430;2022-07-05T05:33:50;0.93;;;0.50;;
70459;SDS011;57920;54.796;9.430;2022-07-05T05:36:16;1.00;;;0.43;;
70459;SDS011;57920;54.796;9.430;2022-07-05T05:38:42;2.23;;;0.73;;
70459;SDS011;57920;54.796;9.430;2022-07-05T05:41:07;2.50;;;0.67;;
70459;SDS011;57920;54.796;9.430;2022-07-05T05:43:33;2.43;;;0.80;;
70459;SDS011;57920;54.796;9.430;2022-07-05T05:45:58;0.53;;;0.50;;
70459;SDS011;57920;54.796;9.430;2022-07-05T05:48:24;0.93;;;0.70;;
70459;SDS011;57920;54.796;9.430;2022-07-05T05:50:50;0.73;;;0.57;;
70459;SDS011;57920;54.796;9.430;2022-07-05T05:53:16;1.53;;;0.73;;
70459;SDS011;57920;54.796;9.430;2022-07-05T05:55:42;1.23;;;0.50;;
70459;SDS011;57920;54.796;9.430;2022-07-05T05:58:15;1.93;;;0.80;;
70459;SDS011;57920;54.796;9.430;2022-07-05T06:00:43;2.80;;;0.70;;
70459;SDS011;57920;54.796;9.430;2022-07-05T06:03:09;1.73;;;0.90;;
70459;SDS011;57920;54.796;9.430;2022-07-05T06:05:35;1.63;;;0.77;;
70459;SDS011;57920;54.796;9.430;2022-07-05T06:08:00;1.57;;;0.40;;
70459;SDS011;57920;54.796;9.430;2022-07-05T06:10:31;0.97;;;0.70;;
70459;SDS011;57920;54.796;9.430;2022-07-05T06:12:59;1.00;;;0.60;;
70459;SDS011;57920;54.796;9.430;2022-07-05T06:15:25;0.97;;;0.50;;
70459;SDS011;57920;54.796;9.430;2022-07-05T06:17:51;4.70;;;1.10;;
70459;SDS011;57920;54.796;9.430;2022-07-05T06:20:18;1.53;;;1.13;;
70459;SDS011;57920;54.796;9.430;2022-07-05T06:22:46;2.40;;;1.30;;
70459;SDS011;57920;54.796;9.430;2022-07-05T06:25:12;2.97;;;1.63;;
70459;SDS011;57920;54.796;9.430;2022-07-05T06:27:42;1.37;;;0.90;;
70459;SDS011;57920;54.796;9.430;2022-07-05T06:30:14;1.00;;;0.70;;
70459;SDS011;57920;54.796;9.430;2022-07-05T06:32:41;1.10;;;0.67;;
70459;SDS011;57920;54.796;9.430;2022-07-05T06:35:08;1.97;;;0.80;;
70459;SDS011;57920;54.796;9.430;2022-07-05T06:37:50;1.40;;;1.20;;
70459;SDS011;57920;54.796;9.430;2022-07-05T06:40:37;1.87;;;0.83;;
70459;SDS011;57920;54.796;9.430;2022-07-05T06:43:05;1.60;;;0.90;;
70459;SDS011;57920;54.796;9.430;2022-07-05T06:45:32;3.20;;;1.50;;
70459;SDS011;57920;54.796;9.430;2022-07-05T06:48:05;1.77;;;0.97;;
70459;SDS011;57920;54.796;9.430;2022-07-05T06:50:33;2.10;;;1.10;;
70459;SDS011;57920;54.796;9.430;2022-07-05T06:53:03;1.43;;;1.23;;
70459;SDS011;57920;54.796;9.430;2022-07-05T06:55:29;10.77;;;2.30;;
70459;SDS011;57920;54.796;9.430;2022-07-05T06:57:59;2.07;;;1.10;;
70459;SDS011;57920;54.796;9.430;2022-07-05T07:00:29;7.27;;;1.50;;
70459;SDS011;57920;54.796;9.430;2022-07-05T07:02:54;5.03;;;1.47;;
70459;SDS011;57920;54.796;9.430;2022-07-05T07:05:20;119.37;;;24.57;;
70459;SDS011;57920;54.796;9.430;2022-07-05T07:07:46;316.93;;;60.10;;
70459;SDS011;57920;54.796;9.430;2022-07-05T07:10:30;486.97;;;90.60;;
70459;SDS011;57920;54.796;9.430;2022-07-05T07:12:56;491.60;;;87.53;;
70459;SDS011;57920;54.796;9.430;2022-07-05T07:15:22;382.47;;;69.37;;
70459;SDS011;57920;54.796;9.430;2022-07-05T07:17:54;233.03;;;48.20;;
70459;SDS011;57920;54.796;9.430;2022-07-05T07:20:20;156.93;;;28.30;;
70459;SDS011;57920;54.796;9.430;2022-07-05T07:22:46;85.37;;;20.20;;
70459;SDS011;57920;54.796;9.430;2022-07-05T07:25:12;62.80;;;15.47;;
70459;SDS011;57920;54.796;9.430;2022-07-05T07:27:41;46.37;;;11.47;;
70459;SDS011;57920;54.796;9.430;2022-07-05T07:30:09;44.13;;;11.63;;
70459;SDS011;57920;54.796;9.430;2022-07-05T07:32:39;124.17;;;19.93;;
70459;SDS011;57920;54.796;9.430;2022-07-05T07:55:48;25.83;;;6.07;;
70459;SDS011;57920;54.796;9.430;2022-07-05T07:58:14;27.30;;;6.03;;
70459;SDS011;57920;54.796;9.430;2022-07-05T08:00:40;19.87;;;4.83;;
70459;SDS011;57920;54.796;9.430;2022-07-05T08:08:16;22.13;;;4.03;;
70459;SDS011;57920;54.796;9.430;2022-07-05T08:10:42;13.73;;;3.17;;
70459;SDS011;57920;54.796;9.430;2022-07-05T08:13:08;13.57;;;2.70;;
70459;SDS011;57920;54.796;9.430;2022-07-05T08:15:33;10.20;;;2.93;;
70459;SDS011;57920;54.796;9.430;2022-07-05T08:29:08;10.77;;;1.63;;
70459;SDS011;57920;54.796;9.430;2022-07-05T08:31:36;10.33;;;2.13;;
70459;SDS011;57920;54.796;9.430;2022-07-05T08:34:11;7.87;;;2.17;;
70459;SDS011;57920;54.796;9.430;2022-07-05T08:36:37;7.60;;;2.07;;
70459;SDS011;57920;54.796;9.430;2022-07-05T08:39:05;5.93;;;2.50;;
70459;SDS011;57920;54.796;9.430;2022-07-05T08:41:32;10.50;;;2.57;;
70459;SDS011;57920;54.796;9.430;2022-07-05T08:44:00;4.83;;;2.60;;
70459;SDS011;57920;54.796;9.430;2022-07-05T08:46:27;4.00;;;2.33;;
70459;SDS011;57920;54.796;9.430;2022-07-05T08:48:56;5.70;;;2.47;;
70459;SDS011;57920;54.796;9.430;2022-07-05T08:51:24;5.20;;;2.20;;
70459;SDS011;57920;54.796;9.430;2022-07-05T08:53:52;8.67;;;1.90;;
70459;SDS011;57920;54.796;9.430;2022-07-05T08:56:20;6.63;;;1.83;;
70459;SDS011;57920;54.796;9.430;2022-07-05T08:58:46;5.10;;;2.60;;
70459;SDS011;57920;54.796;9.430;2022-07-05T09:01:14;4.53;;;1.90;;
70459;SDS011;57920;54.796;9.430;2022-07-05T09:03:48;5.73;;;1.80;;
70459;SDS011;57920;54.796;9.430;2022-07-05T09:06:19;3.37;;;1.70;;
70459;SDS011;57920;54.796;9.430;2022-07-05T09:08:47;4.23;;;1.80;;
70459;SDS011;57920;54.796;9.430;2022-07-05T09:11:16;1.67;;;1.40;;
70459;SDS011;57920;54.796;9.430;2022-07-05T09:13:43;3.57;;;1.50;;
70459;SDS011;57920;54.796;9.430;2022-07-05T09:16:13;2.47;;;1.80;;
70459;SDS011;57920;54.796;9.430;2022-07-05T09:18:40;7.57;;;3.40;;
70459;SDS011;57920;54.796;9.430;2022-07-05T09:21:15;4.83;;;2.63;;
70459;SDS011;57920;54.796;9.430;2022-07-05T09:23:43;6.27;;;2.73;;
70459;SDS011;57920;54.796;9.430;2022-07-05T09:26:10;4.43;;;2.10;;
70459;SDS011;57920;54.796;9.430;2022-07-05T09:28:35;3.87;;;2.07;;
70459;SDS011;57920;54.796;9.430;2022-07-05T09:31:01;3.43;;;2.40;;
70459;SDS011;57920;54.796;9.430;2022-07-05T09:33:27;5.03;;;2.30;;
70459;SDS011;57920;54.796;9.430;2022-07-05T09:35:56;4.03;;;2.07;;
70459;SDS011;57920;54.796;9.430;2022-07-05T09:38:23;4.27;;;1.97;;
70459;SDS011;57920;54.796;9.430;2022-07-05T09:40:50;4.63;;;2.77;;
70459;SDS011;57920;54.796;9.430;2022-07-05T09:43:18;10.43;;;3.57;;
70459;SDS011;57920;54.796;9.430;2022-07-05T09:48:22;4.43;;;1.90;;
70459;SDS011;57920;54.796;9.430;2022-07-05T09:50:48;2.40;;;1.73;;
70459;SDS011;57920;54.796;9.430;2022-07-05T09:53:15;5.33;;;1.80;;
70459;SDS011;57920;54.796;9.430;2022-07-05T09:55:40;2.40;;;1.50;;
70459;SDS011;57920;54.796;9.430;2022-07-05T09:58:06;9.67;;;2.63;;
70459;SDS011;57920;54.796;9.430;2022-07-05T10:00:32;4.20;;;1.37;;
70459;SDS011;57920;54.796;9.430;2022-07-05T10:02:58;4.93;;;1.63;;
70459;SDS011;57920;54.796;9.430;2022-07-05T10:05:27;7.17;;;2.00;;
70459;SDS011;57920;54.796;9.430;2022-07-05T10:07:55;4.53;;;2.00;;
70459;SDS011;57920;54.796;9.430;2022-07-05T10:10:31;4.17;;;1.63;;
70459;SDS011;57920;54.796;9.430;2022-07-05T10:12:58;4.33;;;1.47;;
70459;SDS011;57920;54.796;9.430;2022-07-05T10:15:25;1.90;;;1.33;;
70459;SDS011;57920;54.796;9.430;2022-07-05T10:18:03;4.17;;;1.40;;
70459;SDS011;57920;54.796;9.430;2022-07-05T10:20:33;1.57;;;0.80;;
70459;SDS011;57920;54.796;9.430;2022-07-05T10:23:05;2.97;;;1.30;;
70459;SDS011;57920;54.796;9.430;2022-07-05T10:25:33;2.20;;;1.10;;
70459;SDS011;57920;54.796;9.430;2022-07-05T10:28:01;1.93;;;1.30;;
70459;SDS011;57920;54.796;9.430;2022-07-05T10:30:27;3.27;;;1.07;;
70459;SDS011;57920;54.796;9.430;2022-07-05T10:32:54;2.33;;;1.20;;
70459;SDS011;57920;54.796;9.430;2022-07-05T10:35:21;0.93;;;0.87;;
70459;SDS011;57920;54.796;9.430;2022-07-05T10:37:47;2.90;;;0.83;;
70459;SDS011;57920;54.796;9.430;2022-07-05T10:40:14;1.90;;;1.03;;
70459;SDS011;57920;54.796;9.430;2022-07-05T10:42:41;3.07;;;1.17;;
70459;SDS011;57920;54.796;9.430;2022-07-05T10:45:24;2.50;;;1.33;;
70459;SDS011;57920;54.796;9.430;2022-07-05T10:51:20;4.07;;;1.30;;
70459;SDS011;57920;54.796;9.430;2022-07-05T11:06:32;0.97;;;0.63;;
70459;SDS011;57920;54.796;9.430;2022-07-05T11:14:30;3.80;;;1.07;;
70459;SDS011;57920;54.796;9.430;2022-07-05T11:17:13;1.60;;;0.90;;
70459;SDS011;57920;54.796;9.430;2022-07-05T11:22:38;0.90;;;0.80;;
70459;SDS011;57920;54.796;9.430;2022-07-05T11:25:07;2.83;;;0.80;;
70459;SDS011;57920;54.796;9.430;2022-07-05T11:27:34;4.93;;;0.90;;
70459;SDS011;57920;54.796;9.430;2022-07-05T11:30:00;4.93;;;1.93;;
70459;SDS011;57920;54.796;9.430;2022-07-05T11:35:11;1.77;;;0.60;;
70459;SDS011;57920;54.796;9.430;2022-07-05T11:40:35;14.27;;;2.37;;
70459;SDS011;57920;54.796;9.430;2022-07-05T11:43:03;26.47;;;4.23;;
70459;SDS011;57920;54.796;9.430;2022-07-05T11:45:32;18.53;;;2.33;;
70459;SDS011;57920;54.796;9.430;2022-07-05T11:47:58;13.30;;;2.60;;
70459;SDS011;57920;54.796;9.430;2022-07-05T11:50:25;6.67;;;1.60;;
70459;SDS011;57920;54.796;9.430;2022-07-05T11:53:00;8.87;;;1.97;;
70459;SDS011;57920;54.796;9.430;2022-07-05T11:55:26;11.97;;;2.57;;
70459;SDS011;57920;54.796;9.430;2022-07-05T11:57:54;6.17;;;1.63;;
70459;SDS011;57920;54.796;9.430;2022-07-05T12:02:56;9.10;;;2.40;;
70459;SDS011;57920;54.796;9.430;2022-07-05T12:05:22;6.53;;;2.13;;
70459;SDS011;57920;54.796;9.430;2022-07-05T12:07:49;4.73;;;1.43;;
70459;SDS011;57920;54.796;9.430;2022-07-05T12:10:15;4.33;;;1.27;;
70459;SDS011;57920;54.796;9.430;2022-07-05T12:13:06;4.80;;;1.60;;
70459;SDS011;57920;54.796;9.430;2022-07-05T12:15:33;4.30;;;1.33;;
70459;SDS011;57920;54.796;9.430;2022-07-05T12:18:00;4.83;;;1.50;;
70459;SDS011;57920;54.796;9.430;2022-07-05T12:20:33;5.47;;;1.13;;
70459;SDS011;57920;54.796;9.430;2022-07-05T12:23:00;4.40;;;1.00;;
70459;SDS011;57920;54.796;9.430;2022-07-05T12:25:27;3.80;;;1.30;;
70459;SDS011;57920;54.796;9.430;2022-07-05T12:27:54;2.30;;;1.10;;
70459;SDS011;57920;54.796;9.430;2022-07-05T12:30:21;3.50;;;1.13;;
70459;SDS011;57920;54.796;9.430;2022-07-05T12:32:57;1.80;;;1.20;;
70459;SDS011;57920;54.796;9.430;2022-07-05T12:35:38;5.53;;;1.37;;
70459;SDS011;57920;54.796;9.430;2022-07-05T12:40:32;3.40;;;1.17;;
70459;SDS011;57920;54.796;9.430;2022-07-05T12:43:02;2.77;;;1.47;;
70459;SDS011;57920;54.796;9.430;2022-07-05T12:45:30;4.90;;;1.40;;
70459;SDS011;57920;54.796;9.430;2022-07-05T12:47:56;3.83;;;1.27;;
70459;SDS011;57920;54.796;9.430;2022-07-05T12:50:23;4.10;;;1.10;;
70459;SDS011;57920;54.796;9.430;2022-07-05T12:53:01;3.73;;;1.20;;
70459;SDS011;57920;54.796;9.430;2022-07-05T12:55:50;3.43;;;0.67;;
70459;SDS011;57920;54.796;9.430;2022-07-05T12:58:44;3.00;;;1.00;;
70459;SDS011;57920;54.796;9.430;2022-07-05T13:01:24;2.90;;;1.30;;
70459;SDS011;57920;54.796;9.430;2022-07-05T13:09:37;1.80;;;1.10;;
70459;SDS011;57920;54.796;9.430;2022-07-05T13:14:33;2.87;;;0.90;;
70459;SDS011;57920;54.796;9.430;2022-07-05T13:17:00;1.40;;;0.83;;
70459;SDS011;57920;54.796;9.430;2022-07-05T13:19:26;1.07;;;0.70;;
70459;SDS011;57920;54.796;9.430;2022-07-05T13:21:52;1.83;;;0.70;;
70459;SDS011;57920;54.796;9.430;2022-07-05T13:24:17;1.47;;;0.80;;
70459;SDS011;57920;54.796;9.430;2022-07-05T13:26:43;1.20;;;0.70;;
70459;SDS011;57920;54.796;9.430;2022-07-05T13:29:09;1.47;;;0.73;;
70459;SDS011;57920;54.796;9.430;2022-07-05T13:31:34;1.47;;;0.80;;
70459;SDS011;57920;54.796;9.430;2022-07-05T13:34:00;2.20;;;1.00;;
70459;SDS011;57920;54.796;9.430;2022-07-05T13:36:26;3.13;;;1.10;;
70459;SDS011;57920;54.796;9.430;2022-07-05T13:38:52;1.73;;;0.80;;
70459;SDS011;57920;54.796;9.430;2022-07-05T13:41:18;4.07;;;1.40;;
70459;SDS011;57920;54.796;9.430;2022-07-05T13:43:44;0.80;;;0.80;;
70459;SDS011;57920;54.796;9.430;2022-07-05T13:46:10;0.70;;;0.50;;
70459;SDS011;57920;54.796;9.430;2022-07-05T13:48:36;2.23;;;1.10;;
70459;SDS011;57920;54.796;9.430;2022-07-05T13:51:02;2.37;;;1.00;;
70459;SDS011;57920;54.796;9.430;2022-07-05T13:53:28;2.03;;;1.10;;
70459;SDS011;57920;54.796;9.430;2022-07-05T13:55:54;1.07;;;0.80;;
70459;SDS011;57920;54.796;9.430;2022-07-05T13:58:19;2.80;;;0.70;;
70459;SDS011;57920;54.796;9.430;2022-07-05T14:00:45;2.07;;;1.17;;
70459;SDS011;57920;54.796;9.430;2022-07-05T14:03:11;2.17;;;0.70;;
70459;SDS011;57920;54.796;9.430;2022-07-05T14:05:36;1.60;;;0.60;;
70459;SDS011;57920;54.796;9.430;2022-07-05T14:08:02;1.50;;;0.90;;
70459;SDS011;57920;54.796;9.430;2022-07-05T14:10:28;2.50;;;1.10;;
70459;SDS011;57920;54.796;9.430;2022-07-05T14:12:54;2.67;;;0.93;;
70459;SDS011;57920;54.796;9.430;2022-07-05T14:15:19;1.07;;;0.87;;
70459;SDS011;57920;54.796;9.430;2022-07-05T14:17:45;0.80;;;0.70;;
70459;SDS011;57920;54.796;9.430;2022-07-05T14:20:11;2.40;;;0.90;;
70459;SDS011;57920;54.796;9.430;2022-07-05T14:22:36;0.87;;;0.80;;
70459;SDS011;57920;54.796;9.430;2022-07-05T14:25:02;1.17;;;0.83;;
70459;SDS011;57920;54.796;9.430;2022-07-05T14:27:28;1.63;;;0.63;;
70459;SDS011;57920;54.796;9.430;2022-07-05T14:29:53;0.90;;;0.77;;
70459;SDS011;57920;54.796;9.430;2022-07-05T14:32:19;1.77;;;0.80;;
70459;SDS011;57920;54.796;9.430;2022-07-05T14:34:44;1.33;;;0.57;;
70459;SDS011;57920;54.796;9.430;2022-07-05T14:37:10;2.57;;;0.77;;
70459;SDS011;57920;54.796;9.430;2022-07-05T14:39:35;1.70;;;0.90;;
70459;SDS011;57920;54.796;9.430;2022-07-05T14:42:01;1.73;;;1.00;;
70459;SDS011;57920;54.796;9.430;2022-07-05T14:44:27;2.50;;;0.77;;
70459;SDS011;57920;54.796;9.430;2022-07-05T14:46:53;2.57;;;0.90;;
70459;SDS011;57920;54.796;9.430;2022-07-05T14:49:19;2.50;;;0.90;;
70459;SDS011;57920;54.796;9.430;2022-07-05T14:51:44;1.10;;;0.80;;
70459;SDS011;57920;54.796;9.430;2022-07-05T14:54:10;2.60;;;1.00;;
70459;SDS011;57920;54.796;9.430;2022-07-05T14:56:35;1.00;;;0.90;;
70459;SDS011;57920;54.796;9.430;2022-07-05T14:59:01;1.13;;;0.63;;
70459;SDS011;57920;54.796;9.430;2022-07-05T15:01:28;1.20;;;0.67;;
70459;SDS011;57920;54.796;9.430;2022-07-05T15:03:53;3.27;;;1.00;;
70459;SDS011;57920;54.796;9.430;2022-07-05T15:06:19;1.20;;;0.83;;
70459;SDS011;57920;54.796;9.430;2022-07-05T15:08:45;1.07;;;0.80;;
70459;SDS011;57920;54.796;9.430;2022-07-05T15:11:10;3.07;;;0.90;;
70459;SDS011;57920;54.796;9.430;2022-07-05T15:13:36;1.80;;;0.50;;
70459;SDS011;57920;54.796;9.430;2022-07-05T15:16:01;1.20;;;0.63;;
70459;SDS011;57920;54.796;9.430;2022-07-05T15:18:27;2.37;;;0.83;;
70459;SDS011;57920;54.796;9.430;2022-07-05T15:20:53;2.13;;;0.70;;
70459;SDS011;57920;54.796;9.430;2022-07-05T15:23:19;1.13;;;0.50;;
70459;SDS011;57920;54.796;9.430;2022-07-05T15:25:45;2.03;;;1.00;;
70459;SDS011;57920;54.796;9.430;2022-07-05T15:28:10;2.87;;;1.03;;
70459;SDS011;57920;54.796;9.430;2022-07-05T15:30:37;2.27;;;0.70;;
70459;SDS011;57920;54.796;9.430;2022-07-05T15:33:03;1.50;;;0.70;;
70459;SDS011;57920;54.796;9.430;2022-07-05T15:35:29;1.23;;;0.60;;
70459;SDS011;57920;54.796;9.430;2022-07-05T15:37:55;1.30;;;0.70;;
70459;SDS011;57920;54.796;9.430;2022-07-05T15:40:20;1.10;;;0.63;;
70459;SDS011;57920;54.796;9.430;2022-07-05T15:42:46;1.17;;;0.60;;
70459;SDS011;57920;54.796;9.430;2022-07-05T15:45:12;1.53;;;0.77;;
70459;SDS011;57920;54.796;9.430;2022-07-05T15:47:38;2.83;;;1.03;;
70459;SDS011;57920;54.796;9.430;2022-07-05T15:50:05;2.60;;;0.90;;
70459;SDS011;57920;54.796;9.430;2022-07-05T15:52:31;2.43;;;0.87;;
70459;SDS011;57920;54.796;9.430;2022-07-05T15:54:57;1.80;;;0.60;;
70459;SDS011;57920;54.796;9.430;2022-07-05T15:57:23;2.73;;;0.63;;
70459;SDS011;57920;54.796;9.430;2022-07-05T15:59:51;2.47;;;0.87;;
70459;SDS011;57920;54.796;9.430;2022-07-05T16:02:16;2.33;;;0.80;;
70459;SDS011;57920;54.796;9.430;2022-07-05T16:04:42;1.07;;;0.87;;
70459;SDS011;57920;54.796;9.430;2022-07-05T16:07:08;1.03;;;0.77;;